createdAt,value
2019-02-07T00:01:57.723Z,18.30
2019-02-07T00:04:27.792Z,15.47
2019-02-07T00:06:57.267Z,16.90
2019-02-07T00:09:27.285Z,17.23
2019-02-07T00:11:57.313Z,15.10
2019-02-07T00:14:27.382Z,13.37
2019-02-07T00:16:57.341Z,15.83
2019-02-07T00:19:27.442Z,16.63
2019-02-07T00:21:57.541Z,15.90
2019-02-07T00:24:28.142Z,16.80
2019-02-07T00:26:58.323Z,14.97
2019-02-07T00:29:28.452Z,16.50
2019-02-07T00:31:58.410Z,20.77
2019-02-07T00:34:28.479Z,13.03
2019-02-07T00:36:58.447Z,17.97
2019-02-07T00:39:28.562Z,14.27
2019-02-07T00:41:58.580Z,17.33
2019-02-07T00:44:28.703Z,19.77
2019-02-07T00:46:58.810Z,18.00
2019-02-07T00:49:28.904Z,16.87
2019-02-07T00:52:01.009Z,17.00
2019-02-07T00:54:31.061Z,16.30
2019-02-07T00:57:01.077Z,15.23
2019-02-07T00:59:31.036Z,16.60
2019-02-07T01:02:01.134Z,17.43
2019-02-07T01:04:31.270Z,15.30
2019-02-07T01:07:01.312Z,16.87
2019-02-07T01:09:31.561Z,17.47
2019-02-07T01:12:01.691Z,18.47
2019-02-07T01:14:31.680Z,19.47
2019-02-07T01:17:01.871Z,19.67
2019-02-07T01:19:33.230Z,16.03
2019-02-07T01:22:04.974Z,17.25
2019-02-07T01:24:35.121Z,16.20
2019-02-07T01:27:05.216Z,17.20
2019-02-07T01:29:35.435Z,19.87
2019-02-07T01:32:05.689Z,17.07
2019-02-07T01:34:35.721Z,17.67
2019-02-07T01:37:05.809Z,17.53
2019-02-07T01:39:35.971Z,20.77
2019-02-07T01:42:06.107Z,18.33
2019-02-07T01:44:36.086Z,17.00
2019-02-07T01:47:06.548Z,17.60
2019-02-07T01:49:36.631Z,22.40
2019-02-07T01:52:07.934Z,15.50
2019-02-07T01:54:37.972Z,17.70
2019-02-07T01:57:07.952Z,19.63
2019-02-07T01:59:37.907Z,19.93
2019-02-07T02:02:07.881Z,16.63
2019-02-07T02:04:37.965Z,17.63
2019-02-07T02:07:08.124Z,16.00
2019-02-07T02:09:38.439Z,18.10
2019-02-07T02:12:08.575Z,18.23
2019-02-07T02:14:38.992Z,22.10
2019-02-07T02:17:08.972Z,17.67
2019-02-07T02:19:39.095Z,22.47
2019-02-07T02:22:09.250Z,18.93
2019-02-07T02:24:39.495Z,16.23
2019-02-07T02:27:09.722Z,18.17
2019-02-07T02:29:40.253Z,19.13
2019-02-07T02:32:10.307Z,17.60
2019-02-07T02:34:40.304Z,19.87
2019-02-07T02:37:10.387Z,21.60
2019-02-07T02:39:40.460Z,18.90
2019-02-07T02:42:10.501Z,17.47
2019-02-07T02:44:40.786Z,16.90
2019-02-07T02:47:11.066Z,18.33
2019-02-07T02:49:41.136Z,17.80
2019-02-07T02:52:11.185Z,19.17
2019-02-07T02:55:06.159Z,17.73
2019-02-07T02:57:36.184Z,21.27
2019-02-07T03:00:13.298Z,23.73
2019-02-07T03:03:02.576Z,22.70
2019-02-07T03:05:50.685Z,21.97
2019-02-07T03:08:38.384Z,21.53
2019-02-07T03:11:20.152Z,20.23
2019-02-07T03:14:08.535Z,16.70
2019-02-07T03:17:04.225Z,19.53
2019-02-07T03:19:59.722Z,18.33
2019-02-07T03:22:58.393Z,20.67
2019-02-07T03:25:42.253Z,18.10
2019-02-07T03:28:43.965Z,17.40
2019-02-07T03:31:39.398Z,21.20
2019-02-07T03:34:17.783Z,20.93
2019-02-07T03:37:05.697Z,21.97
2019-02-07T03:39:42.274Z,20.10
2019-02-07T03:42:40.847Z,18.00
2019-02-07T03:45:28.938Z,22.73
2019-02-07T03:48:14.867Z,24.60
2019-02-07T03:51:16.183Z,19.83
2019-02-07T03:54:11.528Z,23.40
2019-02-07T03:57:01.729Z,23.00
2019-02-07T04:00:01.194Z,22.93
2019-02-07T04:02:55.337Z,23.73
2019-02-07T04:05:47.814Z,23.57
2019-02-07T04:08:35.778Z,20.10
2019-02-07T04:11:34.001Z,25.73
2019-02-07T04:14:24.593Z,22.90
2019-02-07T04:17:08.685Z,26.67
2019-02-07T04:20:00.756Z,21.73
2019-02-07T04:22:42.544Z,22.87
2019-02-07T04:25:36.802Z,20.40
2019-02-07T04:28:35.048Z,20.63
2019-02-07T04:31:30.440Z,18.57
2019-02-07T04:34:13.049Z,22.53
2019-02-07T04:36:54.019Z,21.13
2019-02-07T04:39:46.373Z,16.07
2019-02-07T04:42:34.292Z,21.40
2019-02-07T04:45:30.889Z,22.50
2019-02-07T04:48:32.372Z,21.70
2019-02-07T04:51:29.063Z,18.67
2019-02-07T04:54:30.199Z,19.20
2019-02-07T04:57:19.390Z,19.20
2019-02-07T05:00:02.079Z,16.13
2019-02-07T05:03:06.643Z,18.20
2019-02-07T05:05:50.393Z,20.77
2019-02-07T05:08:57.686Z,19.07
2019-02-07T05:11:47.446Z,19.70
2019-02-07T05:14:36.590Z,19.70
2019-02-07T05:17:24.853Z,18.90
2019-02-07T05:20:14.019Z,18.97
2019-02-07T05:23:06.408Z,19.00
2019-02-07T05:26:04.991Z,21.23
2019-02-07T05:28:45.891Z,18.10
2019-02-07T05:31:35.252Z,17.87
2019-02-07T05:34:27.682Z,17.10
2019-02-07T05:37:11.290Z,20.87
2019-02-07T05:40:09.632Z,21.87
2019-02-07T05:42:50.428Z,18.97
2019-02-07T05:45:29.149Z,17.83
2019-02-07T05:48:18.388Z,14.20
2019-02-07T05:51:13.776Z,18.07
2019-02-07T05:53:51.913Z,15.77
2019-02-07T05:56:30.275Z,16.47
2019-02-07T05:59:18.413Z,17.70
2019-02-07T06:02:01.876Z,15.77
2019-02-07T06:05:06.141Z,16.97
2019-02-07T06:07:48.260Z,20.67
2019-02-07T06:10:36.161Z,20.37
2019-02-07T06:13:40.453Z,16.30
2019-02-07T06:16:28.318Z,15.80
2019-02-07T06:19:23.559Z,17.53
2019-02-07T06:22:12.798Z,17.00
2019-02-07T06:24:54.949Z,17.87
2019-02-07T06:27:50.031Z,17.63
2019-02-07T06:30:35.381Z,16.10
2019-02-07T06:33:24.783Z,14.33
2019-02-07T06:36:12.900Z,18.13
2019-02-07T06:39:04.955Z,16.87
2019-02-07T06:42:02.641Z,18.93
2019-02-07T06:44:51.423Z,17.00
2019-02-07T06:47:36.953Z,16.97
2019-02-07T06:50:29.364Z,14.73
2019-02-07T06:53:08.195Z,17.73
2019-02-07T06:55:58.036Z,17.73
2019-02-07T06:58:46.147Z,19.17
2019-02-07T07:01:34.101Z,16.30
2019-02-07T07:04:38.794Z,16.50
2019-02-07T07:07:27.922Z,17.40
2019-02-07T07:10:26.963Z,20.63
2019-02-07T07:13:07.308Z,14.77
2019-02-07T07:15:43.504Z,14.63
2019-02-07T07:18:31.588Z,17.63
2019-02-07T07:21:19.477Z,17.57
2019-02-07T07:24:07.840Z,19.60
2019-02-07T07:26:57.092Z,17.07
2019-02-07T07:29:45.024Z,14.93
2019-02-07T07:32:34.273Z,16.97
2019-02-07T07:35:13.787Z,14.17
2019-02-07T07:38:03.023Z,14.83
2019-02-07T07:40:56.791Z,15.17
2019-02-07T07:43:52.097Z,13.93
2019-02-07T07:46:40.330Z,13.13
2019-02-07T07:49:47.911Z,14.73
2019-02-07T07:52:55.283Z,13.83
2019-02-07T07:55:54.365Z,12.93
2019-02-07T07:58:38.818Z,11.73
2019-02-07T08:01:26.699Z,9.60
2019-02-07T08:04:04.532Z,15.60
2019-02-07T08:06:52.668Z,12.10
2019-02-07T08:09:35.221Z,14.00
2019-02-07T08:12:27.201Z,11.37
2019-02-07T08:15:07.237Z,13.37
2019-02-07T08:17:56.533Z,12.53
2019-02-07T08:21:00.808Z,15.23
2019-02-07T08:24:01.935Z,11.93
2019-02-07T08:26:48.137Z,11.57
2019-02-07T08:29:29.920Z,10.30
2019-02-07T08:32:08.937Z,7.07
2019-02-07T08:34:56.994Z,8.77
2019-02-07T08:38:04.585Z,11.17
2019-02-07T08:41:06.176Z,9.40
2019-02-07T08:43:55.370Z,8.80
2019-02-07T08:46:43.629Z,10.17
2019-02-07T08:49:21.590Z,11.10
2019-02-07T08:52:09.880Z,12.93
2019-02-07T08:54:50.243Z,9.70
2019-02-07T08:57:32.894Z,11.45
2019-02-07T09:00:14.985Z,11.37
2019-02-07T09:03:08.618Z,9.87
2019-02-07T09:06:16.481Z,9.67
2019-02-07T09:09:08.764Z,12.90
2019-02-07T09:11:54.117Z,12.60
2019-02-07T09:14:41.993Z,10.77
2019-02-07T09:17:40.098Z,11.57
2019-02-07T09:20:42.299Z,9.07
2019-02-07T09:23:25.793Z,10.97
2019-02-07T09:26:15.852Z,9.43
2019-02-07T09:29:01.138Z,10.17
2019-02-07T09:31:48.858Z,15.00
2019-02-07T09:34:38.150Z,9.80
2019-02-07T09:37:26.580Z,9.87
2019-02-07T09:40:22.138Z,17.27
2019-02-07T09:43:10.475Z,13.60
2019-02-07T09:46:18.317Z,9.07
2019-02-07T09:49:01.606Z,13.90
2019-02-07T09:51:48.511Z,14.57
2019-02-07T09:54:33.897Z,12.23
2019-02-07T09:57:13.418Z,19.00
2019-02-07T10:00:08.807Z,12.30
2019-02-07T10:02:47.854Z,10.00
2019-02-07T10:05:28.600Z,9.37
2019-02-07T10:08:17.892Z,12.53
2019-02-07T10:11:06.353Z,9.60
2019-02-07T10:14:07.644Z,13.23
2019-02-07T10:16:55.667Z,24.70
2019-02-07T10:19:47.679Z,20.17
2019-02-07T10:22:25.413Z,9.80
2019-02-07T10:25:08.517Z,9.97
2019-02-07T10:28:16.186Z,11.97
2019-02-07T10:31:20.817Z,7.83
2019-02-07T10:33:59.029Z,14.97
2019-02-07T10:36:41.844Z,16.10
2019-02-07T10:39:30.507Z,12.87
2019-02-07T10:42:20.138Z,6.13
2019-02-07T10:45:09.376Z,11.73
2019-02-07T10:47:57.560Z,8.60
2019-02-07T10:50:45.371Z,9.73
2019-02-07T10:53:27.290Z,14.03
2019-02-07T10:56:15.447Z,9.13
2019-02-07T10:59:03.689Z,10.80
2019-02-07T11:01:51.728Z,12.50
2019-02-07T11:04:32.602Z,8.87
2019-02-07T11:07:20.641Z,12.40
2019-02-07T11:09:59.483Z,16.60
2019-02-07T11:12:57.343Z,5.50
2019-02-07T11:15:46.575Z,8.17
2019-02-07T11:18:34.754Z,14.77
2019-02-07T11:21:27.987Z,17.30
2019-02-07T11:24:35.410Z,8.33
2019-02-07T11:27:30.254Z,8.60
2019-02-07T11:30:20.064Z,10.37
2019-02-07T11:33:15.120Z,9.53
2019-02-07T11:36:10.376Z,9.77
2019-02-07T11:38:50.631Z,5.63
2019-02-07T11:41:39.028Z,13.47
2019-02-07T11:44:40.349Z,10.30
2019-02-07T11:47:35.402Z,8.33
2019-02-07T11:50:34.607Z,11.17
2019-02-07T11:53:32.271Z,12.70
2019-02-07T11:56:20.187Z,8.70
2019-02-07T11:59:18.830Z,13.47
2019-02-07T12:02:11.674Z,11.57
2019-02-07T12:05:10.129Z,6.10
2019-02-07T12:07:58.236Z,11.33
2019-02-07T12:10:47.843Z,12.90
2019-02-07T12:13:30.667Z,9.60
2019-02-07T12:16:30.269Z,14.77
2019-02-07T12:19:18.211Z,9.00
2019-02-07T12:21:56.298Z,10.57
2019-02-07T12:24:45.537Z,7.33
2019-02-07T12:27:40.857Z,10.63
2019-02-07T12:30:50.000Z,9.00
2019-02-07T12:33:33.267Z,14.97
2019-02-07T12:36:15.806Z,13.53
2019-02-07T12:39:05.719Z,6.83
2019-02-07T12:41:54.530Z,7.37
2019-02-07T12:44:50.029Z,5.73
2019-02-07T12:47:42.307Z,8.25
2019-02-07T12:50:44.091Z,11.37
2019-02-07T12:53:30.599Z,11.27
2019-02-07T12:56:29.026Z,9.23
2019-02-07T12:59:36.737Z,8.33
2019-02-07T13:02:31.685Z,11.50
2019-02-07T13:05:27.681Z,10.67
2019-02-07T13:08:26.198Z,10.30
2019-02-07T13:11:09.209Z,11.37
2019-02-07T13:14:10.789Z,9.17
2019-02-07T13:16:59.020Z,10.70
2019-02-07T13:19:47.127Z,11.80
2019-02-07T13:22:41.959Z,10.20
2019-02-07T13:25:38.802Z,6.97
2019-02-07T13:28:22.328Z,6.67
2019-02-07T13:31:11.243Z,10.60
2019-02-07T13:33:59.017Z,4.87
2019-02-07T13:36:42.260Z,5.07
2019-02-07T13:39:31.516Z,7.33
2019-02-07T13:42:30.005Z,7.67
2019-02-07T13:45:34.302Z,5.97
2019-02-07T13:48:24.487Z,5.07
2019-02-07T13:51:12.734Z,10.03
2019-02-07T13:54:03.018Z,7.60
2019-02-07T13:56:43.566Z,5.80
2019-02-07T13:59:31.591Z,7.77
2019-02-07T14:02:39.240Z,12.57
2019-02-07T14:05:32.486Z,3.07
2019-02-07T14:08:21.730Z,9.53
2019-02-07T14:11:02.997Z,6.63
2019-02-07T14:14:01.506Z,11.23
2019-02-07T14:16:49.710Z,8.87
2019-02-07T14:19:39.620Z,6.97
2019-02-07T14:22:27.775Z,9.27
2019-02-07T14:25:15.850Z,8.30
2019-02-07T14:28:04.274Z,7.17
2019-02-07T14:30:55.719Z,8.93
2019-02-07T14:33:56.375Z,6.90
2019-02-07T14:36:45.612Z,11.00
2019-02-07T14:39:35.318Z,8.90
2019-02-07T14:42:30.550Z,4.57
2019-02-07T14:45:18.927Z,8.17
2019-02-07T14:47:48.996Z,10.17
2019-02-07T14:50:19.127Z,7.13
2019-02-07T14:52:49.440Z,6.83
2019-02-07T14:55:19.458Z,3.37
2019-02-07T14:57:49.505Z,6.50
2019-02-07T15:00:20.790Z,5.93
2019-02-07T15:02:51.106Z,10.57
2019-02-07T15:05:22.137Z,5.70
2019-02-07T15:07:52.934Z,5.33
2019-02-07T15:10:24.162Z,5.57
2019-02-07T15:12:54.824Z,10.63
2019-02-07T15:15:25.643Z,9.27
2019-02-07T15:17:56.406Z,4.27
2019-02-07T15:20:27.172Z,7.67
2019-02-07T15:22:58.209Z,8.00
2019-02-07T15:25:28.949Z,1.70
2019-02-07T15:28:00.164Z,7.73
2019-02-07T15:30:32.023Z,10.13
2019-02-07T15:33:02.862Z,6.53
2019-02-07T15:35:36.142Z,5.93
2019-02-07T15:38:06.866Z,4.07
2019-02-07T15:40:37.637Z,5.20
2019-02-07T15:43:08.408Z,6.97
2019-02-07T15:45:39.651Z,6.33
2019-02-07T15:48:10.436Z,2.27
2019-02-07T15:50:41.466Z,4.50
2019-02-07T15:53:12.550Z,7.00
2019-02-07T15:55:44.559Z,3.80
2019-02-07T15:58:15.228Z,5.20
2019-02-07T16:00:53.585Z,4.77
2019-02-07T16:03:42.966Z,4.50
2019-02-07T16:06:13.757Z,3.90
2019-02-07T16:08:44.466Z,7.60
2019-02-07T16:11:15.242Z,5.73
2019-02-07T16:13:46.105Z,4.13
2019-02-07T16:16:16.954Z,6.50
2019-02-07T16:18:47.584Z,4.57
2019-02-07T16:21:18.277Z,6.23
2019-02-07T16:23:49.000Z,4.87
2019-02-07T16:26:19.685Z,4.67
2019-02-07T16:28:50.564Z,3.03
2019-02-07T16:31:21.364Z,4.90
2019-02-07T16:33:52.155Z,7.83
2019-02-07T16:36:23.108Z,7.77
2019-02-07T16:38:54.040Z,7.20
2019-02-07T16:41:24.889Z,5.80
2019-02-07T16:43:56.895Z,7.20
2019-02-07T16:46:27.698Z,7.63
2019-02-07T16:48:58.401Z,5.60
2019-02-07T16:51:29.693Z,5.23
2019-02-07T16:54:00.331Z,4.93
2019-02-07T16:56:30.984Z,3.13
2019-02-07T16:59:01.662Z,10.57
2019-02-07T17:01:32.454Z,10.30
2019-02-07T17:04:03.328Z,5.00
2019-02-07T17:06:34.053Z,1.20
2019-02-07T17:09:16.182Z,4.95
2019-02-07T17:11:47.023Z,1.63
2019-02-07T17:14:17.877Z,4.10
2019-02-07T17:16:48.994Z,6.13
2019-02-07T17:19:19.737Z,6.67
2019-02-07T17:21:51.406Z,4.37
2019-02-07T17:24:22.219Z,4.27
2019-02-07T17:26:53.072Z,2.97
2019-02-07T17:29:24.313Z,4.05
2019-02-07T17:31:55.186Z,5.77
2019-02-07T17:34:26.062Z,4.47
2019-02-07T17:36:56.884Z,4.17
2019-02-07T17:39:27.650Z,2.13
2019-02-07T17:41:59.623Z,4.80
2019-02-07T17:44:33.070Z,3.43
2019-02-07T17:47:03.870Z,3.40
2019-02-07T17:49:34.622Z,4.13
2019-02-07T17:52:05.413Z,5.43
2019-02-07T17:54:36.157Z,6.73
2019-02-07T17:57:06.936Z,2.63
2019-02-07T17:59:37.717Z,5.00
2019-02-07T18:02:10.168Z,5.40
2019-02-07T18:04:40.977Z,4.23
2019-02-07T18:07:11.786Z,1.70
2019-02-07T18:09:42.883Z,2.47
2019-02-07T18:12:13.583Z,0.97
2019-02-07T18:14:44.631Z,4.17
2019-02-07T18:17:15.626Z,0.23
2019-02-07T18:19:46.386Z,0.57
2019-02-07T18:22:17.302Z,0.53
2019-02-07T18:24:49.758Z,2.77
2019-02-07T18:27:20.393Z,1.60
2019-02-07T18:29:51.178Z,0.97
2019-02-07T18:32:21.994Z,0.97
2019-02-07T18:34:53.887Z,3.70
2019-02-07T18:37:24.634Z,2.13
2019-02-07T18:39:55.558Z,1.00
2019-02-07T18:42:26.386Z,0.70
2019-02-07T18:45:00.985Z,4.23
2019-02-07T18:47:30.084Z,1.57
2019-02-07T18:50:01.399Z,4.70
2019-02-07T18:52:32.367Z,2.93
2019-02-07T18:55:04.536Z,2.83
2019-02-07T18:57:35.751Z,3.17
2019-02-07T19:00:08.035Z,1.60
2019-02-07T19:02:39.610Z,2.13
2019-02-07T19:05:13.649Z,2.90
2019-02-07T19:07:45.531Z,5.07
2019-02-07T19:10:16.687Z,6.70
2019-02-07T19:12:46.722Z,3.87
2019-02-07T19:15:21.850Z,1.30
2019-02-07T19:17:51.875Z,2.73
2019-02-07T19:20:22.083Z,5.60
2019-02-07T19:22:52.315Z,3.33
2019-02-07T19:25:22.340Z,2.33
2019-02-07T19:27:52.587Z,2.33
2019-02-07T19:30:23.882Z,1.07
2019-02-07T19:32:53.876Z,2.80
2019-02-07T19:35:23.936Z,2.13
2019-02-07T19:37:54.218Z,2.20
2019-02-07T19:40:25.586Z,3.30
2019-02-07T19:42:56.183Z,3.43
2019-02-07T19:45:26.422Z,7.93
2019-02-07T19:47:56.558Z,2.80
2019-02-07T19:50:26.789Z,1.57
2019-02-07T19:52:56.883Z,2.70
2019-02-07T19:55:28.435Z,1.93
2019-02-07T19:57:58.765Z,2.50
2019-02-07T20:00:29.710Z,2.93
2019-02-07T20:02:59.859Z,2.53
2019-02-07T20:05:30.251Z,1.73
2019-02-07T20:08:01.007Z,3.43
2019-02-07T20:10:32.011Z,1.37
2019-02-07T20:13:02.116Z,1.57
2019-02-07T20:15:33.189Z,1.73
2019-02-07T20:18:04.582Z,1.17
2019-02-07T20:20:34.648Z,0.80
2019-02-07T20:23:04.705Z,2.27
2019-02-07T20:25:35.006Z,3.73
2019-02-07T20:28:05.719Z,4.00
2019-02-07T20:30:37.024Z,1.90
2019-02-07T20:33:07.799Z,4.87
2019-02-07T20:35:37.796Z,5.23
2019-02-07T20:38:08.515Z,2.13
2019-02-07T20:40:38.534Z,1.90
2019-02-07T20:43:08.659Z,5.57
2019-02-07T20:45:38.822Z,4.57
2019-02-07T20:48:09.279Z,5.10
2019-02-07T20:50:39.344Z,5.13
2019-02-07T20:53:10.403Z,6.30
2019-02-07T20:55:40.414Z,5.60
2019-02-07T20:58:10.764Z,4.77
2019-02-07T21:00:40.805Z,4.23
2019-02-07T21:03:10.924Z,10.00
2019-02-07T21:05:41.066Z,4.80
2019-02-07T21:08:11.220Z,2.73
2019-02-07T21:10:41.335Z,5.03
2019-02-07T21:13:11.841Z,4.07
2019-02-07T21:15:41.894Z,6.47
2019-02-07T21:18:11.874Z,5.07
2019-02-07T21:20:41.926Z,5.00
2019-02-07T21:23:11.988Z,5.13
2019-02-07T21:25:49.340Z,5.00
2019-02-07T21:28:19.558Z,7.50
2019-02-07T21:30:49.682Z,6.53
2019-02-07T21:33:19.642Z,5.93
2019-02-07T21:35:49.741Z,8.13
2019-02-07T21:38:19.925Z,8.33
2019-02-07T21:40:50.131Z,5.53
2019-02-07T21:43:20.237Z,7.67
2019-02-07T21:45:50.400Z,10.90
2019-02-07T21:48:20.559Z,12.23
2019-02-07T21:50:50.547Z,4.13
2019-02-07T21:53:20.625Z,7.97
2019-02-07T21:55:50.729Z,10.17
2019-02-07T21:58:20.873Z,11.80
2019-02-07T22:00:50.970Z,9.33
2019-02-07T22:03:21.117Z,10.83
2019-02-07T22:05:51.359Z,5.37
2019-02-07T22:08:21.426Z,11.13
2019-02-07T22:10:51.395Z,13.43
2019-02-07T22:13:21.442Z,11.40
2019-02-07T22:15:51.634Z,4.93
2019-02-07T22:18:21.991Z,8.17
2019-02-07T22:20:52.124Z,10.00
2019-02-07T22:23:22.182Z,6.60
2019-02-07T22:25:52.427Z,9.37
2019-02-07T22:28:22.635Z,7.93
2019-02-07T22:30:52.666Z,11.00
2019-02-07T22:33:22.637Z,6.23
2019-02-07T22:35:52.629Z,13.47
2019-02-07T22:38:22.700Z,8.07
2019-02-07T22:40:53.129Z,7.23
2019-02-07T22:43:23.158Z,13.10
2019-02-07T22:45:53.146Z,9.17
2019-02-07T22:48:23.172Z,8.07
2019-02-07T22:50:53.263Z,5.57
2019-02-07T22:53:23.376Z,12.40
2019-02-07T22:55:53.405Z,6.73
2019-02-07T22:58:24.225Z,10.53
2019-02-07T23:01:13.487Z,7.03
2019-02-07T23:03:47.863Z,11.27
2019-02-07T23:06:18.052Z,14.97
2019-02-07T23:08:48.238Z,10.67
2019-02-07T23:11:18.408Z,11.30
2019-02-07T23:13:48.837Z,9.40
2019-02-07T23:16:18.926Z,11.90
2019-02-07T23:18:49.382Z,10.30
2019-02-07T23:21:19.659Z,8.63
2019-02-07T23:23:49.665Z,13.63
2019-02-07T23:26:19.705Z,8.67
2019-02-07T23:28:49.813Z,10.67
2019-02-07T23:31:19.864Z,14.23
2019-02-07T23:33:49.904Z,11.27
2019-02-07T23:36:20.076Z,10.70
2019-02-07T23:38:50.173Z,8.28
2019-02-07T23:41:20.216Z,8.23
2019-02-07T23:43:50.347Z,4.67
2019-02-07T23:46:20.439Z,8.80
2019-02-07T23:48:50.513Z,10.77
2019-02-07T23:51:20.650Z,5.37
2019-02-07T23:53:51.129Z,13.83
2019-02-07T23:56:21.194Z,6.67
2019-02-07T23:58:51.392Z,8.47
